sensor_id;sensor_type;location;lat;lon;timestamp;temperature;humidity
30999;DHT22;20549;50.042;8.968;2022-10-22T00:00:06;17.30;99.90
30999;DHT22;20549;50.042;8.968;2022-10-22T00:02:32;17.30;99.90
30999;DHT22;20549;50.042;8.968;2022-10-22T00:04:59;17.30;99.90
30999;DHT22;20549;50.042;8.968;2022-10-22T00:07:25;17.30;99.90
30999;DHT22;20549;50.042;8.968;2022-10-22T00:09:52;17.30;99.90
30999;DHT22;20549;50.042;8.968;2022-10-22T00:12:18;17.30;99.90
30999;DHT22;20549;50.042;8.968;2022-10-22T00:14:45;17.30;99.90
30999;DHT22;20549;50.042;8.968;2022-10-22T00:17:12;17.30;99.90
30999;DHT22;20549;50.042;8.968;2022-10-22T00:19:38;17.30;99.90
30999;DHT22;20549;50.042;8.968;2022-10-22T00:22:05;17.30;99.90
30999;DHT22;20549;50.042;8.968;2022-10-22T00:24:32;17.30;99.90
30999;DHT22;20549;50.042;8.968;2022-10-22T00:26:58;17.30;99.90
30999;DHT22;20549;50.042;8.968;2022-10-22T00:29:25;17.30;99.90
30999;DHT22;20549;50.042;8.968;2022-10-22T00:31:51;17.30;99.90
30999;DHT22;20549;50.042;8.968;2022-10-22T00:34:18;17.40;99.90
30999;DHT22;20549;50.042;8.968;2022-10-22T00:36:44;17.40;99.90
30999;DHT22;20549;50.042;8.968;2022-10-22T00:39:11;17.40;99.90
30999;DHT22;20549;50.042;8.968;2022-10-22T00:41:38;17.40;99.90
30999;DHT22;20549;50.042;8.968;2022-10-22T00:44:04;17.40;99.90
30999;DHT22;20549;50.042;8.968;2022-10-22T00:46:31;17.40;99.90
30999;DHT22;20549;50.042;8.968;2022-10-22T00:48:58;17.40;99.90
30999;DHT22;20549;50.042;8.968;2022-10-22T00:51:25;17.50;99.90
30999;DHT22;20549;50.042;8.968;2022-10-22T00:53:54;17.50;99.90
30999;DHT22;20549;50.042;8.968;2022-10-22T00:56:17;17.50;99.90
30999;DHT22;20549;50.042;8.968;2022-10-22T00:58:45;17.50;99.90
30999;DHT22;20549;50.042;8.968;2022-10-22T01:01:12;17.50;99.90
30999;DHT22;20549;50.042;8.968;2022-10-22T01:03:37;17.50;99.90
30999;DHT22;20549;50.042;8.968;2022-10-22T01:06:03;17.50;99.90
30999;DHT22;20549;50.042;8.968;2022-10-22T01:08:48;17.50;99.90
30999;DHT22;20549;50.042;8.968;2022-10-22T01:11:26;17.50;99.90
30999;DHT22;20549;50.042;8.968;2022-10-22T01:13:47;17.50;99.90
30999;DHT22;20549;50.042;8.968;2022-10-22T01:16:09;17.50;99.90
30999;DHT22;20549;50.042;8.968;2022-10-22T01:21:32;17.50;99.90
30999;DHT22;20549;50.042;8.968;2022-10-22T01:26:38;17.40;99.90
30999;DHT22;20549;50.042;8.968;2022-10-22T01:29:19;17.40;99.90
30999;DHT22;20549;50.042;8.968;2022-10-22T01:31:51;17.40;99.90
30999;DHT22;20549;50.042;8.968;2022-10-22T01:34:16;17.30;99.90
30999;DHT22;20549;50.042;8.968;2022-10-22T01:36:43;17.30;99.90
30999;DHT22;20549;50.042;8.968;2022-10-22T01:39:10;17.20;99.90
30999;DHT22;20549;50.042;8.968;2022-10-22T01:41:38;17.20;99.90
30999;DHT22;20549;50.042;8.968;2022-10-22T01:44:03;17.20;99.90
30999;DHT22;20549;50.042;8.968;2022-10-22T01:46:29;17.10;99.90
30999;DHT22;20549;50.042;8.968;2022-10-22T01:49:32;17.10;99.90
30999;DHT22;20549;50.042;8.968;2022-10-22T01:52:08;17.10;99.90
30999;DHT22;20549;50.042;8.968;2022-10-22T01:54:37;17.10;99.90
30999;DHT22;20549;50.042;8.968;2022-10-22T01:57:23;17.10;99.90
30999;DHT22;20549;50.042;8.968;2022-10-22T02:02:47;17.10;99.90
30999;DHT22;20549;50.042;8.968;2022-10-22T02:05:17;17.00;99.90
30999;DHT22;20549;50.042;8.968;2022-10-22T02:07:43;17.00;99.90
30999;DHT22;20549;50.042;8.968;2022-10-22T02:10:05;17.00;99.90
30999;DHT22;20549;50.042;8.968;2022-10-22T02:12:32;17.00;99.90
30999;DHT22;20549;50.042;8.968;2022-10-22T02:14:58;17.00;99.90
30999;DHT22;20549;50.042;8.968;2022-10-22T02:17:26;17.00;99.90
30999;DHT22;20549;50.042;8.968;2022-10-22T02:19:53;17.00;99.90
30999;DHT22;20549;50.042;8.968;2022-10-22T02:22:18;17.00;99.90
30999;DHT22;20549;50.042;8.968;2022-10-22T02:24:45;17.10;99.90
30999;DHT22;20549;50.042;8.968;2022-10-22T02:27:26;17.10;99.90
30999;DHT22;20549;50.042;8.968;2022-10-22T02:29:56;17.10;99.90
30999;DHT22;20549;50.042;8.968;2022-10-22T02:32:20;17.20;99.90
30999;DHT22;20549;50.042;8.968;2022-10-22T02:34:46;17.20;99.90
30999;DHT22;20549;50.042;8.968;2022-10-22T02:37:13;17.20;99.90
30999;DHT22;20549;50.042;8.968;2022-10-22T02:39:39;17.20;99.90
30999;DHT22;20549;50.042;8.968;2022-10-22T02:42:06;17.20;99.90
30999;DHT22;20549;50.042;8.968;2022-10-22T02:44:32;17.20;99.90
30999;DHT22;20549;50.042;8.968;2022-10-22T02:46:59;17.30;99.90
30999;DHT22;20549;50.042;8.968;2022-10-22T02:49:25;17.30;99.90
30999;DHT22;20549;50.042;8.968;2022-10-22T02:51:52;17.30;99.90
30999;DHT22;20549;50.042;8.968;2022-10-22T02:54:19;17.40;99.90
30999;DHT22;20549;50.042;8.968;2022-10-22T02:56:45;17.40;99.90
30999;DHT22;20549;50.042;8.968;2022-10-22T02:59:16;17.40;99.90
30999;DHT22;20549;50.042;8.968;2022-10-22T03:01:43;17.40;99.90
30999;DHT22;20549;50.042;8.968;2022-10-22T03:04:09;17.50;99.90
30999;DHT22;20549;50.042;8.968;2022-10-22T03:06:36;17.50;99.90
30999;DHT22;20549;50.042;8.968;2022-10-22T03:09:03;17.50;99.90
30999;DHT22;20549;50.042;8.968;2022-10-22T03:11:29;17.50;99.90
30999;DHT22;20549;50.042;8.968;2022-10-22T03:13:56;17.50;99.90
30999;DHT22;20549;50.042;8.968;2022-10-22T03:16:22;17.50;99.90
30999;DHT22;20549;50.042;8.968;2022-10-22T03:18:49;17.50;99.90
30999;DHT22;20549;50.042;8.968;2022-10-22T03:23:45;17.50;99.90
30999;DHT22;20549;50.042;8.968;2022-10-22T03:26:11;17.50;99.90
30999;DHT22;20549;50.042;8.968;2022-10-22T03:28:38;17.50;99.90
30999;DHT22;20549;50.042;8.968;2022-10-22T03:31:05;17.50;99.90
30999;DHT22;20549;50.042;8.968;2022-10-22T03:33:31;17.50;99.90
30999;DHT22;20549;50.042;8.968;2022-10-22T03:35:58;17.50;99.90
30999;DHT22;20549;50.042;8.968;2022-10-22T03:38:24;17.50;99.90
30999;DHT22;20549;50.042;8.968;2022-10-22T03:40:51;17.50;99.90
30999;DHT22;20549;50.042;8.968;2022-10-22T03:43:17;17.50;99.90
30999;DHT22;20549;50.042;8.968;2022-10-22T03:45:44;17.50;99.90
30999;DHT22;20549;50.042;8.968;2022-10-22T03:48:11;17.50;99.90
30999;DHT22;20549;50.042;8.968;2022-10-22T03:50:37;17.50;99.90
30999;DHT22;20549;50.042;8.968;2022-10-22T03:53:04;17.50;99.90
30999;DHT22;20549;50.042;8.968;2022-10-22T03:55:30;17.50;99.90
30999;DHT22;20549;50.042;8.968;2022-10-22T03:57:57;17.50;99.90
30999;DHT22;20549;50.042;8.968;2022-10-22T04:00:24;17.50;99.90
30999;DHT22;20549;50.042;8.968;2022-10-22T04:02:50;17.50;99.90
30999;DHT22;20549;50.042;8.968;2022-10-22T04:05:17;17.60;99.90
30999;DHT22;20549;50.042;8.968;2022-10-22T04:07:43;17.60;99.90
30999;DHT22;20549;50.042;8.968;2022-10-22T04:10:10;17.60;99.90
30999;DHT22;20549;50.042;8.968;2022-10-22T04:12:37;17.60;99.90
30999;DHT22;20549;50.042;8.968;2022-10-22T04:15:03;17.60;99.90
30999;DHT22;20549;50.042;8.968;2022-10-22T04:17:33;17.60;99.90
30999;DHT22;20549;50.042;8.968;2022-10-22T04:19:59;17.60;99.90
30999;DHT22;20549;50.042;8.968;2022-10-22T04:22:26;17.60;99.90
30999;DHT22;20549;50.042;8.968;2022-10-22T04:24:52;17.60;99.90
30999;DHT22;20549;50.042;8.968;2022-10-22T04:27:19;17.60;99.90
30999;DHT22;20549;50.042;8.968;2022-10-22T04:29:46;17.60;99.90
30999;DHT22;20549;50.042;8.968;2022-10-22T04:32:12;17.60;99.90
30999;DHT22;20549;50.042;8.968;2022-10-22T04:34:39;17.60;99.90
30999;DHT22;20549;50.042;8.968;2022-10-22T04:37:05;17.60;99.90
30999;DHT22;20549;50.042;8.968;2022-10-22T04:39:32;17.60;99.90
30999;DHT22;20549;50.042;8.968;2022-10-22T04:41:59;17.60;99.90
30999;DHT22;20549;50.042;8.968;2022-10-22T04:44:25;17.60;99.90
30999;DHT22;20549;50.042;8.968;2022-10-22T04:46:52;17.60;99.90
30999;DHT22;20549;50.042;8.968;2022-10-22T04:49:18;17.60;99.90
30999;DHT22;20549;50.042;8.968;2022-10-22T04:51:45;17.50;99.90
30999;DHT22;20549;50.042;8.968;2022-10-22T04:54:12;17.50;99.90
30999;DHT22;20549;50.042;8.968;2022-10-22T04:56:38;17.50;99.90
30999;DHT22;20549;50.042;8.968;2022-10-22T04:59:05;17.50;99.90
30999;DHT22;20549;50.042;8.968;2022-10-22T05:01:32;17.50;99.90
30999;DHT22;20549;50.042;8.968;2022-10-22T05:03:59;17.40;99.90
30999;DHT22;20549;50.042;8.968;2022-10-22T05:06:25;17.40;99.90
30999;DHT22;20549;50.042;8.968;2022-10-22T05:08:52;17.40;99.90
30999;DHT22;20549;50.042;8.968;2022-10-22T05:11:19;17.40;99.90
30999;DHT22;20549;50.042;8.968;2022-10-22T05:13:44;17.30;99.90
30999;DHT22;20549;50.042;8.968;2022-10-22T05:16:11;17.30;99.90
30999;DHT22;20549;50.042;8.968;2022-10-22T05:30:54;17.20;99.90
30999;DHT22;20549;50.042;8.968;2022-10-22T05:33:21;17.20;99.90
30999;DHT22;20549;50.042;8.968;2022-10-22T05:35:48;17.20;99.90
30999;DHT22;20549;50.042;8.968;2022-10-22T05:38:14;17.20;99.90
30999;DHT22;20549;50.042;8.968;2022-10-22T05:40:40;17.20;99.90
30999;DHT22;20549;50.042;8.968;2022-10-22T05:43:07;17.20;99.90
30999;DHT22;20549;50.042;8.968;2022-10-22T05:45:37;17.20;99.90
30999;DHT22;20549;50.042;8.968;2022-10-22T05:48:03;17.20;99.90
30999;DHT22;20549;50.042;8.968;2022-10-22T05:50:29;17.20;99.90
30999;DHT22;20549;50.042;8.968;2022-10-22T05:52:56;17.20;99.90
30999;DHT22;20549;50.042;8.968;2022-10-22T05:55:23;17.20;99.90
30999;DHT22;20549;50.042;8.968;2022-10-22T05:57:49;17.20;99.90
30999;DHT22;20549;50.042;8.968;2022-10-22T06:00:16;17.20;99.90
30999;DHT22;20549;50.042;8.968;2022-10-22T06:02:42;17.20;99.90
30999;DHT22;20549;50.042;8.968;2022-10-22T06:05:09;17.20;99.90
30999;DHT22;20549;50.042;8.968;2022-10-22T06:07:35;17.20;99.90
30999;DHT22;20549;50.042;8.968;2022-10-22T06:10:02;17.30;99.90
30999;DHT22;20549;50.042;8.968;2022-10-22T06:12:29;17.30;99.90
30999;DHT22;20549;50.042;8.968;2022-10-22T06:14:55;17.30;99.90
30999;DHT22;20549;50.042;8.968;2022-10-22T06:17:22;17.30;99.90
30999;DHT22;20549;50.042;8.968;2022-10-22T06:19:48;17.30;99.90
30999;DHT22;20549;50.042;8.968;2022-10-22T06:22:15;17.30;99.90
30999;DHT22;20549;50.042;8.968;2022-10-22T06:24:42;17.30;99.90
30999;DHT22;20549;50.042;8.968;2022-10-22T06:27:08;17.30;99.90
30999;DHT22;20549;50.042;8.968;2022-10-22T06:29:35;17.30;99.90
30999;DHT22;20549;50.042;8.968;2022-10-22T06:32:01;17.30;99.90
30999;DHT22;20549;50.042;8.968;2022-10-22T06:34:28;17.40;99.90
30999;DHT22;20549;50.042;8.968;2022-10-22T06:36:55;17.40;99.90
30999;DHT22;20549;50.042;8.968;2022-10-22T06:39:21;17.40;99.90
30999;DHT22;20549;50.042;8.968;2022-10-22T06:41:48;17.40;99.90
30999;DHT22;20549;50.042;8.968;2022-10-22T06:44:15;17.40;99.90
30999;DHT22;20549;50.042;8.968;2022-10-22T06:46:41;17.40;99.90
30999;DHT22;20549;50.042;8.968;2022-10-22T06:49:09;17.40;99.90
30999;DHT22;20549;50.042;8.968;2022-10-22T06:51:34;17.50;99.90
30999;DHT22;20549;50.042;8.968;2022-10-22T06:54:01;17.50;99.90
30999;DHT22;20549;50.042;8.968;2022-10-22T06:56:28;17.50;99.90
30999;DHT22;20549;50.042;8.968;2022-10-22T06:58:55;17.50;99.90
30999;DHT22;20549;50.042;8.968;2022-10-22T07:01:24;17.50;99.90
30999;DHT22;20549;50.042;8.968;2022-10-22T07:03:50;17.60;99.90
30999;DHT22;20549;50.042;8.968;2022-10-22T07:06:16;17.50;99.90
30999;DHT22;20549;50.042;8.968;2022-10-22T07:08:43;17.50;99.90
30999;DHT22;20549;50.042;8.968;2022-10-22T07:11:28;17.50;99.90
30999;DHT22;20549;50.042;8.968;2022-10-22T07:13:55;17.60;99.90
30999;DHT22;20549;50.042;8.968;2022-10-22T07:16:18;17.70;99.90
30999;DHT22;20549;50.042;8.968;2022-10-22T07:18:45;17.90;99.90
30999;DHT22;20549;50.042;8.968;2022-10-22T07:21:11;18.20;99.90
30999;DHT22;20549;50.042;8.968;2022-10-22T07:23:38;18.60;99.90
30999;DHT22;20549;50.042;8.968;2022-10-22T07:26:05;19.00;99.90
30999;DHT22;20549;50.042;8.968;2022-10-22T07:28:31;19.50;99.90
30999;DHT22;20549;50.042;8.968;2022-10-22T07:30:58;20.00;99.90
30999;DHT22;20549;50.042;8.968;2022-10-22T07:33:24;20.50;99.90
30999;DHT22;20549;50.042;8.968;2022-10-22T07:35:55;21.10;99.90
30999;DHT22;20549;50.042;8.968;2022-10-22T07:38:17;21.60;99.90
30999;DHT22;20549;50.042;8.968;2022-10-22T07:40:44;22.20;99.90
30999;DHT22;20549;50.042;8.968;2022-10-22T07:43:10;22.80;99.90
30999;DHT22;20549;50.042;8.968;2022-10-22T07:45:37;23.30;99.90
30999;DHT22;20549;50.042;8.968;2022-10-22T07:48:03;23.90;99.90
30999;DHT22;20549;50.042;8.968;2022-10-22T07:50:30;24.30;99.90
30999;DHT22;20549;50.042;8.968;2022-10-22T07:52:57;24.90;99.90
30999;DHT22;20549;50.042;8.968;2022-10-22T07:55:23;25.30;99.00
30999;DHT22;20549;50.042;8.968;2022-10-22T07:57:50;25.80;97.50
30999;DHT22;20549;50.042;8.968;2022-10-22T08:00:16;26.30;96.10
30999;DHT22;20549;50.042;8.968;2022-10-22T08:02:43;26.80;94.20
30999;DHT22;20549;50.042;8.968;2022-10-22T08:05:10;27.20;92.60
30999;DHT22;20549;50.042;8.968;2022-10-22T08:07:36;27.60;90.40
30999;DHT22;20549;50.042;8.968;2022-10-22T08:10:03;27.90;87.30
30999;DHT22;20549;50.042;8.968;2022-10-22T08:12:29;28.20;85.60
30999;DHT22;20549;50.042;8.968;2022-10-22T08:14:56;28.40;83.10
30999;DHT22;20549;50.042;8.968;2022-10-22T08:17:23;28.60;81.50
30999;DHT22;20549;50.042;8.968;2022-10-22T08:19:49;28.80;80.50
30999;DHT22;20549;50.042;8.968;2022-10-22T08:22:16;29.00;79.60
30999;DHT22;20549;50.042;8.968;2022-10-22T08:24:42;29.20;78.00
30999;DHT22;20549;50.042;8.968;2022-10-22T08:27:09;29.40;77.10
30999;DHT22;20549;50.042;8.968;2022-10-22T08:29:36;29.60;76.10
30999;DHT22;20549;50.042;8.968;2022-10-22T08:32:02;29.70;75.30
30999;DHT22;20549;50.042;8.968;2022-10-22T08:34:29;29.90;74.60
30999;DHT22;20549;50.042;8.968;2022-10-22T08:36:55;30.20;73.80
30999;DHT22;20549;50.042;8.968;2022-10-22T08:39:22;30.40;72.80
30999;DHT22;20549;50.042;8.968;2022-10-22T08:49:24;30.90;68.90
30999;DHT22;20549;50.042;8.968;2022-10-22T08:51:50;31.00;68.50
30999;DHT22;20549;50.042;8.968;2022-10-22T09:00:13;31.10;66.60
30999;DHT22;20549;50.042;8.968;2022-10-22T09:02:56;31.00;65.00
30999;DHT22;20549;50.042;8.968;2022-10-22T09:07:45;30.70;63.90
30999;DHT22;20549;50.042;8.968;2022-10-22T09:10:12;30.50;63.30
30999;DHT22;20549;50.042;8.968;2022-10-22T09:12:38;30.30;63.00
30999;DHT22;20549;50.042;8.968;2022-10-22T09:15:05;30.00;63.80
30999;DHT22;20549;50.042;8.968;2022-10-22T09:17:40;29.90;64.10
30999;DHT22;20549;50.042;8.968;2022-10-22T09:20:19;29.80;63.60
30999;DHT22;20549;50.042;8.968;2022-10-22T09:22:48;29.70;64.00
30999;DHT22;20549;50.042;8.968;2022-10-22T09:25:28;29.60;63.80
30999;DHT22;20549;50.042;8.968;2022-10-22T09:27:53;29.40;63.90
30999;DHT22;20549;50.042;8.968;2022-10-22T09:30:21;29.30;64.30
30999;DHT22;20549;50.042;8.968;2022-10-22T09:32:49;29.10;63.90
30999;DHT22;20549;50.042;8.968;2022-10-22T09:35:13;28.90;63.90
30999;DHT22;20549;50.042;8.968;2022-10-22T09:37:50;28.80;63.50
30999;DHT22;20549;50.042;8.968;2022-10-22T09:40:15;28.70;63.40
30999;DHT22;20549;50.042;8.968;2022-10-22T09:42:42;28.50;63.20
30999;DHT22;20549;50.042;8.968;2022-10-22T09:45:33;28.30;63.40
30999;DHT22;20549;50.042;8.968;2022-10-22T09:47:44;28.10;63.30
30999;DHT22;20549;50.042;8.968;2022-10-22T09:55:43;27.50;63.40
30999;DHT22;20549;50.042;8.968;2022-10-22T09:58:10;27.30;63.60
30999;DHT22;20549;50.042;8.968;2022-10-22T10:00:39;27.10;63.60
30999;DHT22;20549;50.042;8.968;2022-10-22T10:03:03;26.90;63.80
30999;DHT22;20549;50.042;8.968;2022-10-22T10:05:31;26.70;63.80
30999;DHT22;20549;50.042;8.968;2022-10-22T10:07:56;26.50;63.50
30999;DHT22;20549;50.042;8.968;2022-10-22T10:12:59;26.20;63.80
30999;DHT22;20549;50.042;8.968;2022-10-22T10:20:40;25.60;63.40
30999;DHT22;20549;50.042;8.968;2022-10-22T10:23:19;25.40;64.00
30999;DHT22;20549;50.042;8.968;2022-10-22T10:25:41;25.20;64.20
30999;DHT22;20549;50.042;8.968;2022-10-22T10:31:05;24.80;65.10
30999;DHT22;20549;50.042;8.968;2022-10-22T10:33:37;24.60;65.90
30999;DHT22;20549;50.042;8.968;2022-10-22T10:36:16;24.40;66.10
30999;DHT22;20549;50.042;8.968;2022-10-22T10:39:08;24.30;66.40
30999;DHT22;20549;50.042;8.968;2022-10-22T10:41:58;24.20;66.70
30999;DHT22;20549;50.042;8.968;2022-10-22T10:46:55;24.00;66.70
30999;DHT22;20549;50.042;8.968;2022-10-22T10:49:28;23.90;67.50
30999;DHT22;20549;50.042;8.968;2022-10-22T10:56:54;23.70;68.20
30999;DHT22;20549;50.042;8.968;2022-10-22T11:07:19;23.60;68.80
30999;DHT22;20549;50.042;8.968;2022-10-22T11:09:49;23.50;68.90
30999;DHT22;20549;50.042;8.968;2022-10-22T11:12:20;23.50;69.10
30999;DHT22;20549;50.042;8.968;2022-10-22T11:17:16;23.40;69.10
30999;DHT22;20549;50.042;8.968;2022-10-22T11:19:49;23.30;69.10
30999;DHT22;20549;50.042;8.968;2022-10-22T11:23:10;23.30;69.30
30999;DHT22;20549;50.042;8.968;2022-10-22T11:27:41;23.20;70.00
30999;DHT22;20549;50.042;8.968;2022-10-22T11:32:39;23.10;69.70
30999;DHT22;20549;50.042;8.968;2022-10-22T11:35:06;23.00;69.90
30999;DHT22;20549;50.042;8.968;2022-10-22T11:37:32;23.00;69.90
30999;DHT22;20549;50.042;8.968;2022-10-22T11:40:03;22.90;70.00
30999;DHT22;20549;50.042;8.968;2022-10-22T11:45:25;22.70;70.20
30999;DHT22;20549;50.042;8.968;2022-10-22T11:47:34;22.70;70.80
30999;DHT22;20549;50.042;8.968;2022-10-22T11:50:49;22.70;71.00
30999;DHT22;20549;50.042;8.968;2022-10-22T11:55:01;22.80;71.30
30999;DHT22;20549;50.042;8.968;2022-10-22T11:57:37;22.90;71.60
30999;DHT22;20549;50.042;8.968;2022-10-22T12:00:00;22.90;71.10
30999;DHT22;20549;50.042;8.968;2022-10-22T12:07:56;23.00;70.00
30999;DHT22;20549;50.042;8.968;2022-10-22T12:10:32;23.10;69.80
30999;DHT22;20549;50.042;8.968;2022-10-22T12:13:50;23.00;69.70
30999;DHT22;20549;50.042;8.968;2022-10-22T12:15:28;23.00;70.00
30999;DHT22;20549;50.042;8.968;2022-10-22T12:18:01;22.90;70.30
30999;DHT22;20549;50.042;8.968;2022-10-22T12:20:26;22.90;70.20
30999;DHT22;20549;50.042;8.968;2022-10-22T12:22:54;22.80;70.20
30999;DHT22;20549;50.042;8.968;2022-10-22T12:25:23;22.80;70.40
30999;DHT22;20549;50.042;8.968;2022-10-22T12:27:50;22.80;70.70
30999;DHT22;20549;50.042;8.968;2022-10-22T12:30:25;22.80;70.70
30999;DHT22;20549;50.042;8.968;2022-10-22T12:32:51;22.80;70.30
30999;DHT22;20549;50.042;8.968;2022-10-22T12:35:18;22.80;70.30
30999;DHT22;20549;50.042;8.968;2022-10-22T12:37:44;22.70;70.40
30999;DHT22;20549;50.042;8.968;2022-10-22T12:40:20;22.70;70.30
30999;DHT22;20549;50.042;8.968;2022-10-22T12:45:15;22.70;70.30
30999;DHT22;20549;50.042;8.968;2022-10-22T12:47:47;22.70;70.70
30999;DHT22;20549;50.042;8.968;2022-10-22T12:50:17;22.70;71.00
30999;DHT22;20549;50.042;8.968;2022-10-22T12:52:43;22.70;71.10
30999;DHT22;20549;50.042;8.968;2022-10-22T12:55:16;22.80;71.00
30999;DHT22;20549;50.042;8.968;2022-10-22T12:57:44;22.80;70.90
30999;DHT22;20549;50.042;8.968;2022-10-22T13:00:19;22.90;70.70
30999;DHT22;20549;50.042;8.968;2022-10-22T13:02:44;22.90;70.50
30999;DHT22;20549;50.042;8.968;2022-10-22T13:05:29;23.00;70.80
30999;DHT22;20549;50.042;8.968;2022-10-22T13:07:53;23.10;70.90
30999;DHT22;20549;50.042;8.968;2022-10-22T13:10:25;23.10;71.10
30999;DHT22;20549;50.042;8.968;2022-10-22T13:12:55;23.20;71.10
30999;DHT22;20549;50.042;8.968;2022-10-22T13:15:29;23.40;71.10
30999;DHT22;20549;50.042;8.968;2022-10-22T13:17:47;23.40;71.10
30999;DHT22;20549;50.042;8.968;2022-10-22T13:20:20;23.60;70.90
30999;DHT22;20549;50.042;8.968;2022-10-22T13:23:02;23.70;70.80
30999;DHT22;20549;50.042;8.968;2022-10-22T13:25:31;23.80;70.60
30999;DHT22;20549;50.042;8.968;2022-10-22T13:28:01;23.90;70.00
30999;DHT22;20549;50.042;8.968;2022-10-22T13:30:30;23.90;69.60
30999;DHT22;20549;50.042;8.968;2022-10-22T13:33:06;23.90;69.50
30999;DHT22;20549;50.042;8.968;2022-10-22T13:35:33;24.00;69.40
30999;DHT22;20549;50.042;8.968;2022-10-22T13:37:58;24.00;69.40
30999;DHT22;20549;50.042;8.968;2022-10-22T13:40:24;24.00;69.20
30999;DHT22;20549;50.042;8.968;2022-10-22T13:42:51;24.10;68.90
30999;DHT22;20549;50.042;8.968;2022-10-22T13:45:18;24.10;68.90
30999;DHT22;20549;50.042;8.968;2022-10-22T13:47:47;24.20;69.00
30999;DHT22;20549;50.042;8.968;2022-10-22T13:50:14;24.20;68.90
30999;DHT22;20549;50.042;8.968;2022-10-22T13:52:49;24.30;68.50
30999;DHT22;20549;50.042;8.968;2022-10-22T13:57:41;24.30;68.00
30999;DHT22;20549;50.042;8.968;2022-10-22T14:00:18;24.30;68.10
30999;DHT22;20549;50.042;8.968;2022-10-22T14:02:35;24.30;68.10
30999;DHT22;20549;50.042;8.968;2022-10-22T14:05:02;24.30;68.10
30999;DHT22;20549;50.042;8.968;2022-10-22T14:07:28;24.30;68.10
30999;DHT22;20549;50.042;8.968;2022-10-22T14:09:55;24.30;68.10
30999;DHT22;20549;50.042;8.968;2022-10-22T14:12:21;24.30;68.10
30999;DHT22;20549;50.042;8.968;2022-10-22T14:14:48;24.30;67.70
30999;DHT22;20549;50.042;8.968;2022-10-22T14:17:15;24.30;67.20
30999;DHT22;20549;50.042;8.968;2022-10-22T14:19:45;24.30;67.10
30999;DHT22;20549;50.042;8.968;2022-10-22T14:22:17;24.30;66.80
30999;DHT22;20549;50.042;8.968;2022-10-22T14:24:43;24.30;66.50
30999;DHT22;20549;50.042;8.968;2022-10-22T14:27:11;24.20;66.20
30999;DHT22;20549;50.042;8.968;2022-10-22T14:29:36;24.10;66.10
30999;DHT22;20549;50.042;8.968;2022-10-22T14:32:04;24.10;66.10
30999;DHT22;20549;50.042;8.968;2022-10-22T14:34:30;23.90;66.10
30999;DHT22;20549;50.042;8.968;2022-10-22T14:36:56;23.80;66.00
30999;DHT22;20549;50.042;8.968;2022-10-22T14:39:23;23.70;66.00
30999;DHT22;20549;50.042;8.968;2022-10-22T14:41:49;23.60;66.20
30999;DHT22;20549;50.042;8.968;2022-10-22T14:44:16;23.50;66.50
30999;DHT22;20549;50.042;8.968;2022-10-22T14:46:42;23.40;66.90
30999;DHT22;20549;50.042;8.968;2022-10-22T14:49:09;23.30;67.10
30999;DHT22;20549;50.042;8.968;2022-10-22T14:51:36;23.30;67.20
30999;DHT22;20549;50.042;8.968;2022-10-22T14:54:02;23.30;67.50
30999;DHT22;20549;50.042;8.968;2022-10-22T14:56:29;23.20;67.70
30999;DHT22;20549;50.042;8.968;2022-10-22T14:58:55;23.20;67.90
30999;DHT22;20549;50.042;8.968;2022-10-22T15:01:22;23.20;67.90
30999;DHT22;20549;50.042;8.968;2022-10-22T15:03:49;23.20;68.10
30999;DHT22;20549;50.042;8.968;2022-10-22T15:06:15;23.20;67.90
30999;DHT22;20549;50.042;8.968;2022-10-22T15:08:43;23.20;67.80
30999;DHT22;20549;50.042;8.968;2022-10-22T15:11:09;23.20;67.80
30999;DHT22;20549;50.042;8.968;2022-10-22T15:13:35;23.20;67.90
30999;DHT22;20549;50.042;8.968;2022-10-22T15:16:04;23.20;67.80
30999;DHT22;20549;50.042;8.968;2022-10-22T15:18:28;23.20;68.00
30999;DHT22;20549;50.042;8.968;2022-10-22T15:20:58;23.10;67.70
30999;DHT22;20549;50.042;8.968;2022-10-22T15:23:24;23.00;67.80
30999;DHT22;20549;50.042;8.968;2022-10-22T15:25:50;23.00;67.90
30999;DHT22;20549;50.042;8.968;2022-10-22T15:28:17;22.90;68.80
30999;DHT22;20549;50.042;8.968;2022-10-22T15:30:44;22.90;68.30
30999;DHT22;20549;50.042;8.968;2022-10-22T15:33:10;22.80;68.30
30999;DHT22;20549;50.042;8.968;2022-10-22T15:35:37;22.80;68.50
30999;DHT22;20549;50.042;8.968;2022-10-22T15:38:03;22.70;68.50
30999;DHT22;20549;50.042;8.968;2022-10-22T15:40:30;22.70;68.50
30999;DHT22;20549;50.042;8.968;2022-10-22T15:42:57;22.60;68.50
30999;DHT22;20549;50.042;8.968;2022-10-22T15:45:23;22.50;68.60
30999;DHT22;20549;50.042;8.968;2022-10-22T15:47:50;22.50;68.50
30999;DHT22;20549;50.042;8.968;2022-10-22T15:50:16;22.30;68.60
30999;DHT22;20549;50.042;8.968;2022-10-22T15:52:43;22.30;68.80
30999;DHT22;20549;50.042;8.968;2022-10-22T15:55:10;22.10;68.80
30999;DHT22;20549;50.042;8.968;2022-10-22T15:57:36;22.00;69.00
30999;DHT22;20549;50.042;8.968;2022-10-22T16:00:03;21.90;69.20
30999;DHT22;20549;50.042;8.968;2022-10-22T16:02:29;21.70;69.30
30999;DHT22;20549;50.042;8.968;2022-10-22T16:04:56;21.60;69.50
30999;DHT22;20549;50.042;8.968;2022-10-22T16:07:23;21.50;69.70
30999;DHT22;20549;50.042;8.968;2022-10-22T16:09:49;21.30;70.00
30999;DHT22;20549;50.042;8.968;2022-10-22T16:12:16;21.20;70.30
30999;DHT22;20549;50.042;8.968;2022-10-22T16:14:42;21.10;70.60
30999;DHT22;20549;50.042;8.968;2022-10-22T16:17:09;20.90;70.90
30999;DHT22;20549;50.042;8.968;2022-10-22T16:19:35;20.80;71.30
30999;DHT22;20549;50.042;8.968;2022-10-22T16:22:02;20.70;71.90
30999;DHT22;20549;50.042;8.968;2022-10-22T16:24:29;20.60;72.20
30999;DHT22;20549;50.042;8.968;2022-10-22T16:26:55;20.60;72.60
30999;DHT22;20549;50.042;8.968;2022-10-22T16:29:22;20.50;72.90
30999;DHT22;20549;50.042;8.968;2022-10-22T16:31:48;20.50;73.30
30999;DHT22;20549;50.042;8.968;2022-10-22T16:34:15;20.40;73.50
30999;DHT22;20549;50.042;8.968;2022-10-22T16:36:42;20.40;73.80
30999;DHT22;20549;50.042;8.968;2022-10-22T16:39:08;20.30;73.90
30999;DHT22;20549;50.042;8.968;2022-10-22T16:41:35;20.20;74.10
30999;DHT22;20549;50.042;8.968;2022-10-22T16:44:02;20.20;74.20
30999;DHT22;20549;50.042;8.968;2022-10-22T16:46:28;20.10;74.40
30999;DHT22;20549;50.042;8.968;2022-10-22T16:48:54;20.00;74.60
30999;DHT22;20549;50.042;8.968;2022-10-22T16:51:22;19.90;74.80
30999;DHT22;20549;50.042;8.968;2022-10-22T16:53:49;19.80;75.00
30999;DHT22;20549;50.042;8.968;2022-10-22T16:56:15;19.70;75.30
30999;DHT22;20549;50.042;8.968;2022-10-22T16:58:48;19.50;75.60
30999;DHT22;20549;50.042;8.968;2022-10-22T17:01:13;19.40;75.90
30999;DHT22;20549;50.042;8.968;2022-10-22T17:03:40;19.30;76.40
30999;DHT22;20549;50.042;8.968;2022-10-22T17:06:06;19.20;76.80